createdAt,value
2022-08-21T00:00:42.357Z,5.20
2022-08-21T00:03:47.461Z,4.68
2022-08-21T00:06:54.115Z,4.68
2022-08-21T00:09:56.917Z,5.10
2022-08-21T00:13:01.069Z,5.40
2022-08-21T00:16:05.045Z,4.93
2022-08-21T00:19:09.090Z,6.28
2022-08-21T00:22:11.818Z,5.18
2022-08-21T00:25:15.568Z,5.85
2022-08-21T00:28:19.117Z,5.43
2022-08-21T00:31:21.644Z,5.25
2022-08-21T00:34:24.447Z,5.40
2022-08-21T00:37:26.998Z,5.90
2022-08-21T00:40:41.294Z,6.20
2022-08-21T00:43:43.889Z,6.22
2022-08-21T00:46:47.611Z,5.93
2022-08-21T00:49:50.596Z,6.97
2022-08-21T00:52:53.644Z,6.07
2022-08-21T00:55:56.721Z,6.75
2022-08-21T00:59:01.228Z,6.55
2022-08-21T01:02:05.873Z,6.90
2022-08-21T01:05:09.485Z,7.65
2022-08-21T01:08:12.768Z,7.20
2022-08-21T01:11:19.161Z,6.82
2022-08-21T01:14:22.161Z,7.05
2022-08-21T01:17:25.480Z,7.47
2022-08-21T01:20:32.336Z,7.15
2022-08-21T01:23:38.767Z,8.55
2022-08-21T01:26:43.149Z,7.72
2022-08-21T01:29:53.808Z,7.55
2022-08-21T01:32:57.206Z,7.75
2022-08-21T01:36:00.210Z,7.93
2022-08-21T01:39:04.789Z,8.52
2022-08-21T01:42:08.109Z,9.95
2022-08-21T01:45:11.604Z,9.38
2022-08-21T01:48:14.429Z,8.32
2022-08-21T01:51:17.098Z,8.77
2022-08-21T01:54:20.080Z,9.00
2022-08-21T01:57:26.001Z,8.73
2022-08-21T02:00:29.342Z,9.05
2022-08-21T02:03:35.919Z,9.18
2022-08-21T02:06:40.053Z,10.23
2022-08-21T02:09:43.427Z,10.05
2022-08-21T02:12:46.653Z,9.63
2022-08-21T02:15:49.427Z,10.77
2022-08-21T02:18:52.652Z,8.60
2022-08-21T02:21:55.126Z,8.18
2022-08-21T02:24:57.930Z,9.02
2022-08-21T02:28:05.869Z,10.00
2022-08-21T02:34:11.238Z,10.20
2022-08-21T02:37:14.120Z,9.48
2022-08-21T02:40:18.918Z,10.65
2022-08-21T02:43:24.128Z,11.35
2022-08-21T02:46:26.596Z,9.80
2022-08-21T02:49:29.383Z,9.50
2022-08-21T02:52:31.837Z,12.37
2022-08-21T02:55:37.008Z,10.48
2022-08-21T02:58:49.909Z,11.00
2022-08-21T03:01:52.835Z,9.82
2022-08-21T03:04:55.419Z,9.95
2022-08-21T03:07:59.457Z,10.13
2022-08-21T03:11:02.394Z,11.23
2022-08-21T03:14:06.256Z,9.50
2022-08-21T03:17:08.816Z,12.63
2022-08-21T03:20:12.250Z,10.05
2022-08-21T03:23:18.432Z,10.27
2022-08-21T03:26:21.753Z,9.35
2022-08-21T03:29:25.493Z,10.23
2022-08-21T03:32:28.673Z,11.68
2022-08-21T03:35:31.277Z,11.30
2022-08-21T03:38:37.227Z,10.80
2022-08-21T03:41:39.681Z,11.38
2022-08-21T03:44:42.457Z,11.55
2022-08-21T03:48:02.080Z,10.60
2022-08-21T03:51:05.383Z,10.65
2022-08-21T03:54:07.851Z,10.45
2022-08-21T03:57:11.573Z,12.48
2022-08-21T04:00:16.198Z,10.75
2022-08-21T04:03:19.703Z,11.32
2022-08-21T04:06:22.286Z,11.00
2022-08-21T04:09:26.095Z,12.43
2022-08-21T04:12:28.752Z,12.60
2022-08-21T04:15:31.574Z,11.88
2022-08-21T04:18:34.339Z,11.25
2022-08-21T04:21:38.741Z,11.38
2022-08-21T04:24:41.318Z,11.50
2022-08-21T04:27:44.236Z,10.85
2022-08-21T04:30:47.132Z,10.73
2022-08-21T04:33:49.936Z,12.10
2022-08-21T04:36:52.507Z,12.00
2022-08-21T04:39:58.594Z,11.25
2022-08-21T04:43:06.602Z,11.43
2022-08-21T04:49:16.254Z,11.30
2022-08-21T04:52:23.428Z,10.95
2022-08-21T04:55:28.853Z,9.45
2022-08-21T04:58:34.092Z,9.43
2022-08-21T05:01:38.784Z,9.75
2022-08-21T05:04:54.503Z,9.80
2022-08-21T05:08:00.162Z,11.75
2022-08-21T05:11:04.617Z,8.68
2022-08-21T05:14:07.206Z,9.85
2022-08-21T05:17:10.876Z,7.97
2022-08-21T05:20:14.525Z,7.82
2022-08-21T05:23:18.036Z,7.30
2022-08-21T05:26:20.571Z,7.78
2022-08-21T05:29:23.362Z,6.97
2022-08-21T05:32:26.364Z,7.93
2022-08-21T05:35:31.042Z,7.72
2022-08-21T05:38:33.578Z,7.68
2022-08-21T05:41:36.490Z,6.93
2022-08-21T05:44:39.084Z,6.85
2022-08-21T05:47:41.887Z,6.85
2022-08-21T05:50:45.416Z,6.37
2022-08-21T05:53:48.579Z,6.82
2022-08-21T05:56:51.066Z,6.93
2022-08-21T05:59:54.130Z,6.05
2022-08-21T06:02:56.842Z,6.90
2022-08-21T06:05:59.941Z,6.43
2022-08-21T06:09:03.010Z,7.82
2022-08-21T06:12:07.229Z,6.60
2022-08-21T06:15:10.182Z,7.15
2022-08-21T06:18:13.071Z,6.57
2022-08-21T06:21:15.783Z,6.68
2022-08-21T06:24:18.656Z,6.32
2022-08-21T06:27:24.741Z,6.37
2022-08-21T06:30:29.522Z,6.22
2022-08-21T06:33:32.831Z,5.65
2022-08-21T06:36:35.779Z,6.32
2022-08-21T06:39:40.939Z,6.95
2022-08-21T06:42:47.875Z,7.05
2022-08-21T06:45:52.085Z,6.53
2022-08-21T06:48:55.687Z,6.45
2022-08-21T06:51:58.156Z,6.05
2022-08-21T06:55:00.964Z,6.15
2022-08-21T06:58:05.050Z,6.10
2022-08-21T07:01:08.069Z,5.85
2022-08-21T07:04:11.355Z,6.60
2022-08-21T07:07:14.164Z,5.90
2022-08-21T07:10:21.765Z,5.87
2022-08-21T07:13:26.081Z,5.50
2022-08-21T07:16:28.584Z,6.80
2022-08-21T07:19:31.340Z,5.45
2022-08-21T07:22:36.265Z,5.40
2022-08-21T07:25:39.464Z,5.97
2022-08-21T07:28:42.180Z,5.75
2022-08-21T07:31:45.187Z,6.25
2022-08-21T07:34:47.723Z,5.68
2022-08-21T07:37:50.817Z,5.40
2022-08-21T07:40:56.926Z,5.45
2022-08-21T07:44:00.567Z,5.10
2022-08-21T07:47:03.336Z,5.32
2022-08-21T07:50:07.428Z,5.53
2022-08-21T07:53:10.080Z,7.45
2022-08-21T07:56:13.170Z,5.30
2022-08-21T07:59:16.020Z,5.25
2022-08-21T08:02:26.591Z,7.25
2022-08-21T08:05:31.250Z,4.87
2022-08-21T08:08:34.273Z,4.90
2022-08-21T08:11:39.865Z,5.85
2022-08-21T08:14:42.394Z,4.95
2022-08-21T08:17:45.200Z,5.70
2022-08-21T08:20:47.718Z,5.57
2022-08-21T08:23:50.684Z,5.82
2022-08-21T08:26:54.997Z,5.90
2022-08-21T08:29:58.410Z,6.00
2022-08-21T08:33:01.539Z,5.35
2022-08-21T08:36:08.006Z,5.68
2022-08-21T08:39:10.966Z,5.50
2022-08-21T08:42:32.921Z,6.12
2022-08-21T08:45:40.153Z,7.10
2022-08-21T08:48:56.877Z,5.18
2022-08-21T08:52:05.305Z,5.00
2022-08-21T08:55:27.185Z,6.15
2022-08-21T08:58:32.324Z,6.30
2022-08-21T09:01:38.804Z,5.78
2022-08-21T09:04:42.599Z,5.87
2022-08-21T09:08:06.319Z,5.68
2022-08-21T09:11:19.352Z,6.53
2022-08-21T09:14:25.025Z,7.28
2022-08-21T09:21:21.016Z,6.95
2022-08-21T09:24:33.692Z,7.97
2022-08-21T09:27:37.549Z,7.40
2022-08-21T09:30:40.672Z,6.65
2022-08-21T09:33:43.542Z,7.18
2022-08-21T09:36:50.245Z,6.03
2022-08-21T09:39:53.089Z,5.45
2022-08-21T09:43:00.304Z,6.82
2022-08-21T09:46:25.163Z,5.60
2022-08-21T09:49:30.084Z,5.90
2022-08-21T09:52:32.925Z,6.45
2022-08-21T09:55:58.808Z,5.68
2022-08-21T09:59:01.715Z,6.20
2022-08-21T10:02:32.141Z,6.35
2022-08-21T10:05:35.384Z,6.93
2022-08-21T10:08:40.906Z,6.65
2022-08-21T10:12:00.726Z,6.18
2022-08-21T10:15:14.181Z,8.05
2022-08-21T10:18:39.280Z,5.65
2022-08-21T10:21:57.016Z,6.30
2022-08-21T10:25:02.718Z,6.25
2022-08-21T10:28:13.578Z,6.18
2022-08-21T10:31:32.365Z,5.87
2022-08-21T10:34:52.838Z,4.93
2022-08-21T10:38:10.541Z,7.55
2022-08-21T10:41:33.100Z,5.78
2022-08-21T10:44:40.145Z,5.30
2022-08-21T10:47:51.488Z,6.55
2022-08-21T10:51:06.863Z,6.18
2022-08-21T10:54:22.811Z,5.68
2022-08-21T10:57:57.208Z,6.77
2022-08-21T11:01:06.911Z,5.22
2022-08-21T11:04:49.968Z,7.12
2022-08-21T11:07:55.506Z,5.90
2022-08-21T11:11:09.365Z,5.97
2022-08-21T11:14:37.553Z,5.65
2022-08-21T11:17:54.202Z,5.25
2022-08-21T11:21:34.639Z,5.67
2022-08-21T11:25:08.202Z,4.75
2022-08-21T11:28:18.759Z,5.80
2022-08-21T11:31:43.341Z,5.30
2022-08-21T11:35:01.941Z,4.90
2022-08-21T11:38:19.248Z,4.53
2022-08-21T11:41:54.236Z,5.28
2022-08-21T11:45:28.341Z,5.07
2022-08-21T11:48:59.836Z,5.05
2022-08-21T11:52:25.721Z,5.53
2022-08-21T11:55:58.873Z,5.07
2022-08-21T11:59:09.579Z,5.25
2022-08-21T12:02:21.150Z,5.00
2022-08-21T12:05:52.681Z,5.93
2022-08-21T12:09:02.435Z,4.87
2022-08-21T12:12:12.394Z,5.22
2022-08-21T12:15:18.115Z,5.15
2022-08-21T12:18:31.596Z,5.12
2022-08-21T12:21:35.513Z,6.03
2022-08-21T12:24:42.702Z,5.25
2022-08-21T12:27:52.551Z,8.33
2022-08-21T12:30:58.124Z,7.25
2022-08-21T12:34:05.460Z,5.45
2022-08-21T12:37:19.743Z,6.05
2022-08-21T12:40:42.838Z,5.85
2022-08-21T12:43:56.807Z,6.82
2022-08-21T12:47:04.348Z,8.20
2022-08-21T12:53:24.668Z,6.55
2022-08-21T12:56:31.262Z,6.45
2022-08-21T12:59:38.821Z,6.07
2022-08-21T13:02:49.245Z,6.60
2022-08-21T13:05:52.953Z,5.30
2022-08-21T13:09:05.051Z,5.47
2022-08-21T13:12:09.826Z,5.10
2022-08-21T13:15:13.396Z,5.80
2022-08-21T13:18:23.553Z,4.95
2022-08-21T13:21:33.094Z,5.05
2022-08-21T13:24:42.917Z,10.35
2022-08-21T13:28:00.071Z,10.10
2022-08-21T13:31:14.422Z,9.23
2022-08-21T13:34:18.996Z,6.30
2022-08-21T13:37:24.240Z,6.90
2022-08-21T13:40:31.678Z,6.78
2022-08-21T13:43:36.554Z,7.03
2022-08-21T13:46:39.572Z,5.93
2022-08-21T13:49:46.365Z,5.53
2022-08-21T13:53:05.545Z,5.32
2022-08-21T13:56:08.139Z,5.05
2022-08-21T13:59:11.205Z,5.20
2022-08-21T14:02:17.729Z,4.43
2022-08-21T14:05:26.083Z,4.20
2022-08-21T14:08:41.037Z,4.60
2022-08-21T14:11:43.945Z,4.35
2022-08-21T14:14:46.992Z,4.75
2022-08-21T14:17:50.004Z,4.05
2022-08-21T14:20:53.439Z,4.32
2022-08-21T14:24:05.381Z,4.20
2022-08-21T14:27:08.609Z,4.10
2022-08-21T14:30:20.726Z,5.03
2022-08-21T14:33:30.052Z,3.85
2022-08-21T14:36:33.022Z,3.33
2022-08-21T14:39:35.583Z,3.30
2022-08-21T14:42:39.465Z,3.37
2022-08-21T14:45:42.291Z,3.75
2022-08-21T14:48:45.158Z,2.70
2022-08-21T14:51:54.192Z,4.37
2022-08-21T14:54:57.532Z,2.97
2022-08-21T14:58:01.536Z,2.70
2022-08-21T15:01:06.594Z,2.85
2022-08-21T15:04:09.414Z,2.70
2022-08-21T15:07:12.253Z,2.50
2022-08-21T15:10:15.020Z,3.78
2022-08-21T15:13:17.909Z,2.95
2022-08-21T15:16:20.560Z,3.15
2022-08-21T15:19:24.063Z,2.45
2022-08-21T15:22:27.745Z,2.58
2022-08-21T15:25:31.495Z,2.17
2022-08-21T15:28:35.366Z,2.20
2022-08-21T15:31:51.746Z,2.80
2022-08-21T15:34:56.318Z,2.47
2022-08-21T15:37:59.133Z,3.15
2022-08-21T15:41:04.414Z,2.35
2022-08-21T15:44:12.014Z,2.47
2022-08-21T15:47:23.326Z,2.28
2022-08-21T15:50:27.150Z,2.35
2022-08-21T15:53:29.989Z,2.10
2022-08-21T15:56:39.616Z,2.58
2022-08-21T15:59:48.050Z,2.60
2022-08-21T16:02:57.166Z,2.33
2022-08-21T16:06:00.000Z,2.40
2022-08-21T16:09:02.819Z,2.15
2022-08-21T16:12:07.011Z,2.50
2022-08-21T16:15:17.818Z,2.55
2022-08-21T16:18:24.086Z,2.50
2022-08-21T16:21:26.695Z,2.50
2022-08-21T16:24:29.570Z,4.60
2022-08-21T16:27:33.110Z,3.08
2022-08-21T16:30:38.221Z,3.12
2022-08-21T16:33:44.625Z,4.57
2022-08-21T16:36:48.023Z,5.47
2022-08-21T16:39:50.731Z,3.30
2022-08-21T16:42:56.613Z,3.08
2022-08-21T16:46:01.238Z,3.45
2022-08-21T16:49:04.345Z,3.45
2022-08-21T16:52:06.931Z,3.97
2022-08-21T16:55:09.997Z,3.78
2022-08-21T16:58:26.796Z,4.50
2022-08-21T17:01:33.319Z,7.55
2022-08-21T17:04:35.985Z,6.12
2022-08-21T17:07:39.396Z,4.93
2022-08-21T17:10:47.969Z,4.68
2022-08-21T17:13:51.255Z,5.35
2022-08-21T17:16:56.136Z,5.18
2022-08-21T17:19:59.115Z,6.28
2022-08-21T17:23:01.707Z,4.60
2022-08-21T17:26:04.754Z,6.30
2022-08-21T17:29:10.085Z,4.65
2022-08-21T17:32:14.689Z,5.32
2022-08-21T17:35:17.506Z,5.90
2022-08-21T17:38:20.799Z,4.30
2022-08-21T17:41:24.651Z,3.50
2022-08-21T17:44:27.729Z,4.47
2022-08-21T17:47:30.365Z,3.80
2022-08-21T17:50:33.823Z,4.78
2022-08-21T17:53:36.696Z,5.07
2022-08-21T17:56:41.367Z,4.55
2022-08-21T17:59:44.034Z,5.00
2022-08-21T18:02:51.182Z,4.75
2022-08-21T18:05:56.894Z,5.03
2022-08-21T18:08:59.713Z,4.50
2022-08-21T18:12:03.019Z,3.55
2022-08-21T18:15:07.840Z,3.85
2022-08-21T18:18:10.976Z,3.87
2022-08-21T18:21:13.555Z,3.75
2022-08-21T18:24:17.647Z,3.50
2022-08-21T18:27:21.672Z,3.80
2022-08-21T18:30:25.296Z,3.28
2022-08-21T18:33:58.283Z,3.45
2022-08-21T18:37:21.864Z,3.78
2022-08-21T18:40:48.591Z,3.53
2022-08-21T18:44:14.706Z,3.05
2022-08-21T18:47:46.421Z,3.20
2022-08-21T18:50:50.682Z,3.15
2022-08-21T18:53:53.796Z,3.37
2022-08-21T18:56:58.589Z,3.17
2022-08-21T19:00:05.145Z,3.17
2022-08-21T19:03:16.192Z,3.25
2022-08-21T19:06:25.423Z,2.95
2022-08-21T19:09:28.307Z,3.80
2022-08-21T19:12:33.466Z,3.67
2022-08-21T19:15:38.557Z,4.18
2022-08-21T19:18:41.974Z,4.05
2022-08-21T19:21:47.172Z,4.43
2022-08-21T19:24:52.082Z,4.18
2022-08-21T19:27:55.514Z,4.20
2022-08-21T19:31:04.738Z,4.15
2022-08-21T19:34:13.748Z,4.30
2022-08-21T19:37:20.431Z,4.20
2022-08-21T19:40:23.481Z,4.07
2022-08-21T19:43:26.462Z,3.30
2022-08-21T19:46:36.098Z,2.67
2022-08-21T19:49:48.967Z,2.90
2022-08-21T19:52:51.854Z,2.20
2022-08-21T19:55:54.639Z,2.35
2022-08-21T19:58:57.728Z,2.60
2022-08-21T20:02:00.431Z,2.50
2022-08-21T20:05:05.262Z,1.90
2022-08-21T20:08:11.616Z,2.33
2022-08-21T20:11:36.071Z,2.55
2022-08-21T20:14:45.363Z,2.55
2022-08-21T20:17:49.602Z,2.67
2022-08-21T20:20:52.461Z,2.45
2022-08-21T20:23:55.509Z,2.67
2022-08-21T20:26:58.366Z,2.58
2022-08-21T20:30:01.449Z,3.65
2022-08-21T20:33:04.707Z,2.50
2022-08-21T20:36:07.663Z,2.42
2022-08-21T20:39:11.725Z,2.20
2022-08-21T20:42:14.655Z,2.60
2022-08-21T20:45:20.555Z,2.37
2022-08-21T20:48:32.812Z,3.37
2022-08-21T20:51:53.364Z,2.53
2022-08-21T20:55:03.906Z,2.67
2022-08-21T20:58:13.734Z,2.60
2022-08-21T21:01:19.165Z,3.45
2022-08-21T21:04:35.000Z,2.80
2022-08-21T21:08:00.738Z,2.70
2022-08-21T21:11:07.948Z,2.62
2022-08-21T21:14:15.624Z,3.30
2022-08-21T21:17:28.833Z,3.67
2022-08-21T21:20:39.442Z,3.50
2022-08-21T21:24:00.111Z,5.25
2022-08-21T21:27:20.066Z,3.47
2022-08-21T21:30:35.340Z,3.75
2022-08-21T21:33:38.717Z,3.83
2022-08-21T21:36:56.190Z,3.92
2022-08-21T21:40:25.294Z,4.18
2022-08-21T21:43:53.145Z,4.40
2022-08-21T21:47:29.302Z,3.80
2022-08-21T21:51:12.169Z,3.92
2022-08-21T21:54:37.346Z,3.83
2022-08-21T21:57:57.956Z,4.55
2022-08-21T22:01:11.792Z,4.87
2022-08-21T22:04:40.032Z,5.70
2022-08-21T22:08:14.000Z,4.47
2022-08-21T22:11:55.571Z,3.70
2022-08-21T22:14:58.929Z,3.92
2022-08-21T22:18:25.706Z,4.50
2022-08-21T22:21:33.572Z,3.80
2022-08-21T22:24:42.775Z,4.37
2022-08-21T22:27:49.353Z,3.83
2022-08-21T22:30:55.912Z,4.50
2022-08-21T22:34:03.853Z,4.15
2022-08-21T22:40:15.758Z,3.95
2022-08-21T22:43:20.648Z,5.37
2022-08-21T22:46:37.255Z,5.55
2022-08-21T22:49:49.227Z,6.65
2022-08-21T22:53:02.550Z,5.53
2022-08-21T22:56:07.620Z,4.80
2022-08-21T22:59:35.547Z,5.35
2022-08-21T23:02:44.910Z,5.00
2022-08-21T23:05:47.832Z,4.60
2022-08-21T23:08:51.610Z,8.05
2022-08-21T23:11:56.645Z,5.72
2022-08-21T23:15:01.960Z,5.05
2022-08-21T23:18:21.195Z,4.18
2022-08-21T23:21:34.629Z,5.15
2022-08-21T23:25:12.467Z,3.67
2022-08-21T23:28:41.559Z,3.37
2022-08-21T23:32:02.889Z,2.92
2022-08-21T23:35:13.736Z,3.65
2022-08-21T23:38:42.819Z,3.97
2022-08-21T23:45:33.168Z,3.10
2022-08-21T23:48:57.919Z,4.32
2022-08-21T23:52:10.365Z,4.53
2022-08-21T23:55:36.587Z,3.60
2022-08-21T23:58:46.599Z,3.95
